createdAt,value
2023-05-09T00:01:19.857Z,9.07
2023-05-09T00:03:46.302Z,9.38
2023-05-09T00:06:13.438Z,10.40
2023-05-09T00:08:41.688Z,9.52
2023-05-09T00:11:08.045Z,9.60
2023-05-09T00:13:34.704Z,9.60
2023-05-09T00:16:01.797Z,9.63
2023-05-09T00:18:29.892Z,9.80
2023-05-09T00:20:56.658Z,9.60
2023-05-09T00:23:23.938Z,9.38
2023-05-09T00:25:50.736Z,9.40
2023-05-09T00:28:17.169Z,10.10
2023-05-09T00:30:44.695Z,8.90
2023-05-09T00:33:11.179Z,9.07
2023-05-09T00:35:37.617Z,8.35
2023-05-09T00:38:04.414Z,9.40
2023-05-09T00:40:31.474Z,9.35
2023-05-09T00:43:00.316Z,8.90
2023-05-09T00:45:26.751Z,8.30
2023-05-09T00:47:53.478Z,9.25
2023-05-09T00:50:20.546Z,7.82
2023-05-09T00:52:46.959Z,7.85
2023-05-09T00:55:13.797Z,8.70
2023-05-09T00:57:40.911Z,8.15
2023-05-09T01:00:12.813Z,8.50
2023-05-09T01:02:51.541Z,8.57
2023-05-09T01:05:18.995Z,8.73
2023-05-09T01:08:07.929Z,9.23
2023-05-09T01:10:54.118Z,8.55
2023-05-09T01:13:28.621Z,8.60
2023-05-09T01:16:16.603Z,8.30
2023-05-09T01:18:46.427Z,9.45
2023-05-09T01:21:28.061Z,8.98
2023-05-09T01:24:13.281Z,8.73
2023-05-09T01:27:33.961Z,9.23
2023-05-09T01:30:05.068Z,8.52
2023-05-09T01:32:36.280Z,9.45
2023-05-09T01:35:05.066Z,9.93
2023-05-09T01:37:34.208Z,9.00
2023-05-09T01:40:08.578Z,9.55
2023-05-09T01:42:45.394Z,9.43
2023-05-09T01:45:14.561Z,9.82
2023-05-09T01:47:41.905Z,8.80
2023-05-09T01:50:11.407Z,8.80
2023-05-09T01:52:40.436Z,9.57
2023-05-09T01:55:08.521Z,9.93
2023-05-09T01:57:37.308Z,9.05
2023-05-09T02:00:05.550Z,9.45
2023-05-09T02:02:32.737Z,10.45
2023-05-09T02:05:00.231Z,9.75
2023-05-09T02:07:29.629Z,10.30
2023-05-09T02:09:58.097Z,9.43
2023-05-09T02:12:24.536Z,11.00
2023-05-09T02:14:51.648Z,9.68
2023-05-09T02:17:18.790Z,10.00
2023-05-09T02:19:45.474Z,9.20
2023-05-09T02:22:13.406Z,12.23
2023-05-09T02:24:40.846Z,10.40
2023-05-09T02:27:09.069Z,8.32
2023-05-09T02:29:40.904Z,7.90
2023-05-09T02:32:16.315Z,7.93
2023-05-09T02:34:45.725Z,8.27
2023-05-09T02:37:13.339Z,8.25
2023-05-09T02:39:39.800Z,7.78
2023-05-09T02:42:08.392Z,7.88
2023-05-09T02:44:34.872Z,7.35
2023-05-09T02:47:02.682Z,7.93
2023-05-09T02:49:32.484Z,7.60
2023-05-09T02:51:59.568Z,8.05
2023-05-09T02:54:25.981Z,7.95
2023-05-09T02:56:53.091Z,8.60
2023-05-09T02:59:20.252Z,8.38
2023-05-09T03:01:46.796Z,9.25
2023-05-09T03:04:13.798Z,9.88
2023-05-09T03:06:40.276Z,10.63
2023-05-09T03:09:07.070Z,10.85
2023-05-09T03:11:34.080Z,11.02
2023-05-09T03:14:00.401Z,10.40
2023-05-09T03:16:26.818Z,10.40
2023-05-09T03:18:53.595Z,10.27
2023-05-09T03:21:19.993Z,10.98
2023-05-09T03:23:46.330Z,11.35
2023-05-09T03:26:13.185Z,9.98
2023-05-09T03:28:39.652Z,10.30
2023-05-09T03:31:06.378Z,9.63
2023-05-09T03:33:33.505Z,10.82
2023-05-09T03:35:59.820Z,12.73
2023-05-09T03:38:26.149Z,10.88
2023-05-09T03:40:54.052Z,11.27
2023-05-09T03:43:20.404Z,12.43
2023-05-09T03:45:46.713Z,13.73
2023-05-09T03:48:13.701Z,12.45
2023-05-09T03:50:40.861Z,13.60
2023-05-09T03:53:07.272Z,13.38
2023-05-09T03:55:34.100Z,12.45
2023-05-09T03:58:00.540Z,11.88
2023-05-09T04:00:27.063Z,12.82
2023-05-09T04:02:53.957Z,13.20
2023-05-09T04:05:20.894Z,13.18
2023-05-09T04:07:47.239Z,11.77
2023-05-09T04:10:15.627Z,12.10
2023-05-09T04:12:42.020Z,11.88
2023-05-09T04:15:09.074Z,13.93
2023-05-09T04:17:35.860Z,14.10
2023-05-09T04:20:02.993Z,14.35
2023-05-09T04:22:29.332Z,12.40
2023-05-09T04:24:56.552Z,15.18
2023-05-09T04:27:23.677Z,14.00
2023-05-09T04:29:50.073Z,15.35
2023-05-09T04:32:16.824Z,14.07
2023-05-09T04:34:43.198Z,16.77
2023-05-09T04:37:09.766Z,15.10
2023-05-09T04:39:36.561Z,13.88
2023-05-09T04:42:02.923Z,11.85
2023-05-09T04:44:33.301Z,13.18
2023-05-09T04:47:00.002Z,12.30
2023-05-09T04:49:26.437Z,12.05
2023-05-09T04:51:52.753Z,12.57
2023-05-09T04:54:19.534Z,12.43
2023-05-09T04:56:46.807Z,12.25
2023-05-09T04:59:14.192Z,14.13
2023-05-09T05:01:41.229Z,16.05
2023-05-09T05:04:07.594Z,15.52
2023-05-09T05:06:33.908Z,17.15
2023-05-09T05:09:00.644Z,16.60
2023-05-09T05:11:27.028Z,17.80
2023-05-09T05:13:53.515Z,17.15
2023-05-09T05:16:20.964Z,17.05
2023-05-09T05:18:47.340Z,15.32
2023-05-09T05:21:13.698Z,16.45
2023-05-09T05:23:40.434Z,14.98
2023-05-09T05:26:06.778Z,16.00
2023-05-09T05:28:33.122Z,15.25
2023-05-09T05:30:59.882Z,15.45
2023-05-09T05:33:26.282Z,15.57
2023-05-09T05:35:52.602Z,14.93
2023-05-09T05:38:19.412Z,15.18
2023-05-09T05:40:45.803Z,15.80
2023-05-09T05:43:12.122Z,16.27
2023-05-09T05:45:39.075Z,14.77
2023-05-09T05:48:05.672Z,14.98
2023-05-09T05:50:32.132Z,13.30
2023-05-09T05:52:58.852Z,13.77
2023-05-09T05:55:25.238Z,13.27
2023-05-09T05:57:51.597Z,13.18
2023-05-09T06:00:18.424Z,14.35
2023-05-09T06:02:45.151Z,12.77
2023-05-09T06:05:11.808Z,13.10
2023-05-09T06:07:38.682Z,12.35
2023-05-09T06:10:05.647Z,11.65
2023-05-09T06:12:32.056Z,11.93
2023-05-09T06:14:58.775Z,10.95
2023-05-09T06:17:25.240Z,11.60
2023-05-09T06:19:51.634Z,11.77
2023-05-09T06:22:18.354Z,11.90
2023-05-09T06:24:44.682Z,12.10
2023-05-09T06:27:11.191Z,13.02
2023-05-09T06:29:37.980Z,11.55
2023-05-09T06:32:04.565Z,11.38
2023-05-09T06:34:31.018Z,11.57
2023-05-09T06:36:57.685Z,12.95
2023-05-09T06:39:24.049Z,10.80
2023-05-09T06:41:50.483Z,11.32
2023-05-09T06:44:17.242Z,10.60
2023-05-09T06:46:43.588Z,12.10
2023-05-09T06:49:10.829Z,11.75
2023-05-09T06:51:37.561Z,11.13
2023-05-09T06:54:04.099Z,11.18
2023-05-09T06:56:31.463Z,10.18
2023-05-09T06:58:58.604Z,10.63
2023-05-09T07:01:24.973Z,10.65
2023-05-09T07:03:52.105Z,11.60
2023-05-09T07:06:18.962Z,11.65
2023-05-09T07:08:45.845Z,21.65
2023-05-09T07:11:12.201Z,10.68
2023-05-09T07:13:38.808Z,10.88
2023-05-09T07:16:05.587Z,11.25
2023-05-09T07:18:31.992Z,11.32
2023-05-09T07:20:58.661Z,11.45
2023-05-09T07:23:25.985Z,10.75
2023-05-09T07:25:58.766Z,11.23
2023-05-09T07:28:25.933Z,12.00
2023-05-09T07:30:52.326Z,11.25
2023-05-09T07:33:19.029Z,13.00
2023-05-09T07:35:45.372Z,11.48
2023-05-09T07:38:12.444Z,12.10
2023-05-09T07:40:39.228Z,10.90
2023-05-09T07:43:05.558Z,10.82
2023-05-09T07:45:32.393Z,11.85
2023-05-09T07:47:59.163Z,10.77
2023-05-09T07:50:26.034Z,12.40
2023-05-09T07:52:52.659Z,12.10
2023-05-09T07:55:19.156Z,11.15
2023-05-09T07:57:45.545Z,10.90
2023-05-09T08:00:12.513Z,12.95
2023-05-09T08:02:39.049Z,11.25
2023-05-09T08:05:06.526Z,12.00
2023-05-09T08:07:32.877Z,11.77
2023-05-09T08:09:59.614Z,12.75
2023-05-09T08:12:25.987Z,12.02
2023-05-09T08:14:52.345Z,11.02
2023-05-09T08:17:18.974Z,11.05
2023-05-09T08:19:45.328Z,11.82
2023-05-09T08:22:20.729Z,10.68
2023-05-09T08:24:47.717Z,12.13
2023-05-09T08:27:14.312Z,11.93
2023-05-09T08:29:41.496Z,9.90
2023-05-09T08:32:08.774Z,12.65
2023-05-09T08:34:35.605Z,11.52
2023-05-09T08:37:03.493Z,13.05
2023-05-09T08:39:30.880Z,11.85
2023-05-09T08:42:01.851Z,12.02
2023-05-09T08:44:29.954Z,11.68
2023-05-09T08:47:01.981Z,11.60
2023-05-09T08:49:28.735Z,13.15
2023-05-09T08:51:56.078Z,12.20
2023-05-09T08:54:24.295Z,12.32
2023-05-09T08:56:51.814Z,12.38
2023-05-09T08:59:18.913Z,12.63
2023-05-09T09:01:45.578Z,13.63
2023-05-09T09:04:12.001Z,11.93
2023-05-09T09:06:39.515Z,11.98
2023-05-09T09:09:08.485Z,12.07
2023-05-09T09:11:35.812Z,12.57
2023-05-09T09:14:10.163Z,13.23
2023-05-09T09:16:36.942Z,12.25
2023-05-09T09:19:09.788Z,12.30
2023-05-09T09:21:36.518Z,12.45
2023-05-09T09:24:03.278Z,12.25
2023-05-09T09:26:32.404Z,12.60
2023-05-09T09:28:58.840Z,12.27
2023-05-09T09:31:27.389Z,11.93
2023-05-09T09:34:03.587Z,14.00
2023-05-09T09:36:32.355Z,12.70
2023-05-09T09:39:00.468Z,12.07
2023-05-09T09:41:40.528Z,13.05
2023-05-09T09:44:18.327Z,10.85
2023-05-09T09:46:49.122Z,12.20
2023-05-09T09:49:17.084Z,12.18
2023-05-09T09:51:44.272Z,11.63
2023-05-09T09:54:13.263Z,12.63
2023-05-09T09:56:45.527Z,12.00
2023-05-09T09:59:23.698Z,14.93
2023-05-09T10:02:02.922Z,11.25
2023-05-09T10:04:36.898Z,12.65
2023-05-09T10:07:05.934Z,11.68
2023-05-09T10:09:34.065Z,10.98
2023-05-09T10:12:06.567Z,11.07
2023-05-09T10:14:35.603Z,10.93
2023-05-09T10:17:04.387Z,10.98
2023-05-09T10:19:31.813Z,12.95
2023-05-09T10:22:05.258Z,12.68
2023-05-09T10:24:42.554Z,11.35
2023-05-09T10:27:13.608Z,12.43
2023-05-09T10:29:55.308Z,11.68
2023-05-09T10:32:27.814Z,11.07
2023-05-09T10:35:01.208Z,11.15
2023-05-09T10:37:28.482Z,10.73
2023-05-09T10:39:55.577Z,9.55
2023-05-09T10:42:23.844Z,10.63
2023-05-09T10:44:51.788Z,9.50
2023-05-09T10:47:18.956Z,10.85
2023-05-09T10:49:45.995Z,10.77
2023-05-09T10:52:12.773Z,9.07
2023-05-09T10:54:39.220Z,10.98
2023-05-09T10:57:08.990Z,9.60
2023-05-09T10:59:36.444Z,9.68
2023-05-09T11:02:04.108Z,9.85
2023-05-09T11:04:32.429Z,10.55
2023-05-09T11:07:00.524Z,9.90
2023-05-09T11:09:30.466Z,10.43
2023-05-09T11:12:06.294Z,10.07
2023-05-09T11:14:34.052Z,7.25
2023-05-09T11:17:03.055Z,8.77
2023-05-09T11:19:37.082Z,8.70
2023-05-09T11:22:34.167Z,9.30
2023-05-09T11:25:04.957Z,8.27
2023-05-09T11:27:49.419Z,9.30
2023-05-09T11:30:19.144Z,9.02
2023-05-09T11:32:53.852Z,8.77
2023-05-09T11:35:23.989Z,8.70
2023-05-09T11:37:54.909Z,8.35
2023-05-09T11:40:22.444Z,8.30
2023-05-09T11:42:55.423Z,8.00
2023-05-09T11:45:26.706Z,6.60
2023-05-09T11:47:54.293Z,5.50
2023-05-09T11:50:21.567Z,8.30
2023-05-09T11:52:48.783Z,9.57
2023-05-09T11:55:17.664Z,8.90
2023-05-09T11:57:49.373Z,6.35
2023-05-09T12:00:20.977Z,7.00
2023-05-09T12:02:47.800Z,9.70
2023-05-09T12:05:16.259Z,8.07
2023-05-09T12:07:43.557Z,6.10
2023-05-09T12:10:14.440Z,5.00
2023-05-09T12:12:49.402Z,4.85
2023-05-09T12:15:17.845Z,6.00
2023-05-09T12:17:47.136Z,6.90
2023-05-09T12:20:14.695Z,5.55
2023-05-09T12:22:43.631Z,5.85
2023-05-09T12:25:11.684Z,5.43
2023-05-09T12:27:39.811Z,6.72
2023-05-09T12:30:09.872Z,7.07
2023-05-09T12:32:39.274Z,5.65
2023-05-09T12:35:10.923Z,3.78
2023-05-09T12:37:37.743Z,3.60
2023-05-09T12:40:05.348Z,4.28
2023-05-09T12:42:33.136Z,5.00
2023-05-09T12:45:01.931Z,5.85
2023-05-09T12:47:31.668Z,6.13
2023-05-09T12:50:06.418Z,4.68
2023-05-09T12:53:01.379Z,4.30
2023-05-09T12:55:30.732Z,6.05
2023-05-09T12:57:59.809Z,6.05
2023-05-09T13:00:26.285Z,4.60
2023-05-09T13:02:53.065Z,4.90
2023-05-09T13:05:22.139Z,4.65
2023-05-09T13:07:52.392Z,4.78
2023-05-09T13:10:28.749Z,4.57
2023-05-09T13:12:55.124Z,4.88
2023-05-09T13:15:23.464Z,4.35
2023-05-09T13:17:51.436Z,3.10
2023-05-09T13:20:19.198Z,3.40
2023-05-09T13:22:46.780Z,3.33
2023-05-09T13:25:13.616Z,4.75
2023-05-09T13:27:40.000Z,3.60
2023-05-09T13:30:10.479Z,3.95
2023-05-09T13:32:36.904Z,3.17
2023-05-09T13:35:06.456Z,3.00
2023-05-09T13:37:33.371Z,2.65
2023-05-09T13:39:59.702Z,3.05
2023-05-09T13:42:26.587Z,2.90
2023-05-09T13:44:53.476Z,2.92
2023-05-09T13:47:19.799Z,3.15
2023-05-09T13:49:46.131Z,3.13
2023-05-09T13:52:14.664Z,2.80
2023-05-09T13:54:41.132Z,2.88
2023-05-09T13:57:07.833Z,2.35
2023-05-09T13:59:34.918Z,2.83
2023-05-09T14:02:01.463Z,3.05
2023-05-09T14:04:29.541Z,2.72
2023-05-09T14:06:56.451Z,3.60
2023-05-09T14:09:23.216Z,3.53
2023-05-09T14:11:53.037Z,4.07
2023-05-09T14:14:21.666Z,4.70
2023-05-09T14:16:48.401Z,3.80
2023-05-09T14:19:15.818Z,3.35
2023-05-09T14:21:43.720Z,3.47
2023-05-09T14:24:14.242Z,3.75
2023-05-09T14:26:42.173Z,4.35
2023-05-09T14:29:08.899Z,4.18
2023-05-09T14:31:35.268Z,4.70
2023-05-09T14:34:01.696Z,4.03
2023-05-09T14:36:29.129Z,4.07
2023-05-09T14:38:55.509Z,4.50
2023-05-09T14:41:22.692Z,4.35
2023-05-09T14:43:49.098Z,4.55
2023-05-09T14:46:15.539Z,5.35
2023-05-09T14:48:42.320Z,4.18
2023-05-09T14:51:08.690Z,4.72
2023-05-09T14:53:39.910Z,4.85
2023-05-09T14:56:10.756Z,4.80
2023-05-09T14:58:37.423Z,5.13
2023-05-09T15:01:05.039Z,4.78
2023-05-09T15:03:31.576Z,5.60
2023-05-09T15:06:01.437Z,5.32
2023-05-09T15:08:28.534Z,4.70
2023-05-09T15:10:54.918Z,4.75
2023-05-09T15:13:21.616Z,4.30
2023-05-09T15:15:48.711Z,4.22
2023-05-09T15:18:16.841Z,4.97
2023-05-09T15:20:43.459Z,5.43
2023-05-09T15:23:11.235Z,4.97
2023-05-09T15:25:37.680Z,4.60
2023-05-09T15:28:04.259Z,4.80
2023-05-09T15:30:30.963Z,5.40
2023-05-09T15:32:57.445Z,5.60
2023-05-09T15:35:23.965Z,4.80
2023-05-09T15:37:50.763Z,3.92
2023-05-09T15:40:17.302Z,4.78
2023-05-09T15:42:43.848Z,4.72
2023-05-09T15:45:10.751Z,4.82
2023-05-09T15:47:37.236Z,5.70
2023-05-09T15:50:04.446Z,4.60
2023-05-09T15:52:31.305Z,4.75
2023-05-09T15:54:57.964Z,5.10
2023-05-09T15:57:24.964Z,5.47
2023-05-09T15:59:54.653Z,4.75
2023-05-09T16:02:22.531Z,5.10
2023-05-09T16:04:48.951Z,5.53
2023-05-09T16:07:15.334Z,4.88
2023-05-09T16:09:43.450Z,4.72
2023-05-09T16:12:09.927Z,4.25
2023-05-09T16:14:36.859Z,4.60
2023-05-09T16:17:04.015Z,4.63
2023-05-09T16:19:30.930Z,4.43
2023-05-09T16:21:57.337Z,4.70
2023-05-09T16:24:24.012Z,4.05
2023-05-09T16:26:50.414Z,4.50
2023-05-09T16:29:16.762Z,4.45
2023-05-09T16:31:45.396Z,4.90
2023-05-09T16:34:11.950Z,3.92
2023-05-09T16:36:39.353Z,3.92
2023-05-09T16:39:07.806Z,4.18
2023-05-09T16:41:34.145Z,5.03
2023-05-09T16:44:00.514Z,4.22
2023-05-09T16:46:26.891Z,4.10
2023-05-09T16:48:53.362Z,4.63
2023-05-09T16:51:19.743Z,4.85
2023-05-09T16:53:46.661Z,4.50
2023-05-09T16:56:13.297Z,4.57
2023-05-09T16:58:39.682Z,5.15
2023-05-09T17:01:07.068Z,4.88
2023-05-09T17:03:33.415Z,5.00
2023-05-09T17:05:59.766Z,5.13
2023-05-09T17:08:26.560Z,5.32
2023-05-09T17:10:53.537Z,5.68
2023-05-09T17:13:20.001Z,4.78
2023-05-09T17:15:46.514Z,6.00
2023-05-09T17:18:17.048Z,5.55
2023-05-09T17:20:46.100Z,6.13
2023-05-09T17:23:12.484Z,6.07
2023-05-09T17:25:39.291Z,5.78
2023-05-09T17:28:05.658Z,6.97
2023-05-09T17:30:32.281Z,6.50
2023-05-09T17:32:59.128Z,6.35
2023-05-09T17:35:25.881Z,6.32
2023-05-09T17:37:52.238Z,6.80
2023-05-09T17:40:19.114Z,6.28
2023-05-09T17:42:45.439Z,6.95
2023-05-09T17:45:12.835Z,6.07
2023-05-09T17:47:39.315Z,5.38
2023-05-09T17:50:07.152Z,5.35
2023-05-09T17:52:34.268Z,5.90
2023-05-09T17:55:01.889Z,4.65
2023-05-09T17:57:28.247Z,4.72
2023-05-09T17:59:54.605Z,4.72
2023-05-09T18:02:24.278Z,4.55
2023-05-09T18:04:51.113Z,4.50
2023-05-09T18:07:17.806Z,4.43
2023-05-09T18:09:44.138Z,3.60
2023-05-09T18:12:10.546Z,4.05
2023-05-09T18:14:39.593Z,3.38
2023-05-09T18:17:05.915Z,3.42
2023-05-09T18:19:33.075Z,3.83
2023-05-09T18:21:59.937Z,3.65
2023-05-09T18:24:26.301Z,3.80
2023-05-09T18:26:52.721Z,3.47
2023-05-09T18:29:20.003Z,2.90
2023-05-09T18:31:46.435Z,3.35
2023-05-09T18:34:13.005Z,3.92
2023-05-09T18:36:39.898Z,3.40
2023-05-09T18:39:06.232Z,3.17
2023-05-09T18:41:33.852Z,3.13
2023-05-09T18:44:00.772Z,3.17
2023-05-09T18:46:27.861Z,3.58
2023-05-09T18:48:54.661Z,3.33
2023-05-09T18:51:21.887Z,3.20
2023-05-09T18:53:48.401Z,3.80
2023-05-09T18:56:14.814Z,3.13
2023-05-09T18:58:41.864Z,3.17
2023-05-09T19:01:11.323Z,4.30
2023-05-09T19:03:44.123Z,3.80
2023-05-09T19:06:12.844Z,3.80
2023-05-09T19:08:43.215Z,3.78
2023-05-09T19:11:11.851Z,5.00
2023-05-09T19:13:40.015Z,5.28
2023-05-09T19:16:07.702Z,4.03
2023-05-09T19:18:35.084Z,4.28
2023-05-09T19:21:01.596Z,4.53
2023-05-09T19:23:28.134Z,4.50
2023-05-09T19:25:55.268Z,3.50
2023-05-09T19:28:22.863Z,3.50
2023-05-09T19:30:50.391Z,3.67
2023-05-09T19:33:17.056Z,3.40
2023-05-09T19:35:44.115Z,3.58
2023-05-09T19:38:13.397Z,3.65
2023-05-09T19:40:40.178Z,4.18
2023-05-09T19:43:07.083Z,3.85
2023-05-09T19:45:33.407Z,3.72
2023-05-09T19:47:59.797Z,4.20
2023-05-09T19:50:26.860Z,3.28
2023-05-09T19:52:53.191Z,3.42
2023-05-09T19:55:19.579Z,3.30
2023-05-09T19:57:46.305Z,3.10
2023-05-09T20:00:14.174Z,1.90
2023-05-09T20:02:41.670Z,2.15
2023-05-09T20:05:08.488Z,2.63
2023-05-09T20:07:34.798Z,2.58
2023-05-09T20:10:01.658Z,2.30
2023-05-09T20:12:30.160Z,2.95
2023-05-09T20:14:56.897Z,3.45
2023-05-09T20:17:23.330Z,2.67
2023-05-09T20:19:50.098Z,2.92
2023-05-09T20:22:16.749Z,3.38
2023-05-09T20:24:43.130Z,3.05
2023-05-09T20:27:10.007Z,3.50
2023-05-09T20:29:36.365Z,2.75
2023-05-09T20:32:02.814Z,3.00
2023-05-09T20:34:29.629Z,2.92
2023-05-09T20:36:55.937Z,2.65
2023-05-09T20:39:23.097Z,2.80
2023-05-09T20:41:50.804Z,2.60
2023-05-09T20:44:18.974Z,2.70
2023-05-09T20:46:45.616Z,2.17
2023-05-09T20:49:12.989Z,2.53
2023-05-09T20:51:39.523Z,2.38
2023-05-09T20:54:05.985Z,3.00
2023-05-09T20:56:35.772Z,2.90
2023-05-09T20:59:03.727Z,2.90
2023-05-09T21:01:37.484Z,2.78
2023-05-09T21:04:05.473Z,2.83
2023-05-09T21:06:33.362Z,3.10
2023-05-09T21:09:00.135Z,3.13
2023-05-09T21:11:26.462Z,2.95
2023-05-09T21:13:53.251Z,3.25
2023-05-09T21:16:19.585Z,3.03
2023-05-09T21:18:46.144Z,2.90
2023-05-09T21:21:13.146Z,2.30
2023-05-09T21:23:39.558Z,2.67
2023-05-09T21:26:05.899Z,2.90
2023-05-09T21:28:33.265Z,2.35
2023-05-09T21:31:01.466Z,2.40
2023-05-09T21:33:27.948Z,2.30
2023-05-09T21:35:54.865Z,2.05
2023-05-09T21:38:21.208Z,2.20
2023-05-09T21:40:47.552Z,2.35
2023-05-09T21:43:15.739Z,1.98
2023-05-09T21:45:42.080Z,1.88
2023-05-09T21:48:08.422Z,2.30
2023-05-09T21:50:35.225Z,2.22
2023-05-09T21:53:01.997Z,2.45
2023-05-09T21:55:28.420Z,2.22
2023-05-09T21:57:54.822Z,2.25
2023-05-09T22:00:21.553Z,2.70
2023-05-09T22:02:48.102Z,2.47
2023-05-09T22:05:14.857Z,2.80
2023-05-09T22:07:41.183Z,2.70
2023-05-09T22:10:08.163Z,2.40
2023-05-09T22:12:34.897Z,2.80
2023-05-09T22:15:01.745Z,2.60
2023-05-09T22:17:28.084Z,2.53
2023-05-09T22:19:54.429Z,2.80
2023-05-09T22:22:21.724Z,2.72
2023-05-09T22:24:49.537Z,3.03
2023-05-09T22:27:15.931Z,2.80
2023-05-09T22:29:42.795Z,3.13
2023-05-09T22:32:09.295Z,2.95
2023-05-09T22:34:35.773Z,2.97
2023-05-09T22:37:02.511Z,3.28
2023-05-09T22:39:29.674Z,2.45
2023-05-09T22:41:56.189Z,3.20
2023-05-09T22:44:23.003Z,2.75
2023-05-09T22:46:49.409Z,3.00
2023-05-09T22:49:15.854Z,3.03
2023-05-09T22:51:42.570Z,3.38
2023-05-09T22:54:09.016Z,3.42
2023-05-09T22:56:35.367Z,3.30
2023-05-09T22:59:01.923Z,3.15
2023-05-09T23:01:28.289Z,3.60
2023-05-09T23:03:55.023Z,3.50
2023-05-09T23:06:21.337Z,3.15
2023-05-09T23:08:48.436Z,2.75
2023-05-09T23:11:15.156Z,3.38
2023-05-09T23:13:42.150Z,3.25
2023-05-09T23:16:09.004Z,2.83
2023-05-09T23:18:35.698Z,3.10
2023-05-09T23:21:02.040Z,2.95
2023-05-09T23:23:29.072Z,2.65
2023-05-09T23:25:55.387Z,3.22
2023-05-09T23:28:24.960Z,2.85
2023-05-09T23:30:53.592Z,2.78
2023-05-09T23:33:20.315Z,2.75
2023-05-09T23:35:47.385Z,3.10
2023-05-09T23:38:14.410Z,2.67
2023-05-09T23:40:44.085Z,2.67
2023-05-09T23:43:10.393Z,2.40
2023-05-09T23:45:37.089Z,2.85
2023-05-09T23:48:03.998Z,2.50
2023-05-09T23:50:30.981Z,2.38
2023-05-09T23:52:57.309Z,2.20
2023-05-09T23:55:24.554Z,2.20
2023-05-09T23:57:50.882Z,2.38
